sensor_id;sensor_type;location;lat;lon;timestamp;temperature;humidity
76787;DHT22;65739;51.482;5.702;2023-11-19T00:00:30;13.20;99.90
76787;DHT22;65739;51.482;5.702;2023-11-19T00:02:55;13.10;99.90
76787;DHT22;65739;51.482;5.702;2023-11-19T00:05:21;13.10;99.90
76787;DHT22;65739;51.482;5.702;2023-11-19T00:07:46;13.00;99.90
76787;DHT22;65739;51.482;5.702;2023-11-19T00:10:14;13.10;99.90
76787;DHT22;65739;51.482;5.702;2023-11-19T00:12:43;13.10;99.90
76787;DHT22;65739;51.482;5.702;2023-11-19T00:15:10;13.00;99.90
76787;DHT22;65739;51.482;5.702;2023-11-19T00:17:42;13.10;99.90
76787;DHT22;65739;51.482;5.702;2023-11-19T00:20:13;13.10;99.90
76787;DHT22;65739;51.482;5.702;2023-11-19T00:22:39;13.10;99.90
76787;DHT22;65739;51.482;5.702;2023-11-19T00:25:06;13.10;99.90
76787;DHT22;65739;51.482;5.702;2023-11-19T00:27:32;13.10;99.90
76787;DHT22;65739;51.482;5.702;2023-11-19T00:29:57;13.20;99.90
76787;DHT22;65739;51.482;5.702;2023-11-19T00:32:23;13.20;99.90
76787;DHT22;65739;51.482;5.702;2023-11-19T00:34:49;13.20;99.90
76787;DHT22;65739;51.482;5.702;2023-11-19T00:37:15;13.20;99.90
76787;DHT22;65739;51.482;5.702;2023-11-19T00:39:41;13.20;99.90
76787;DHT22;65739;51.482;5.702;2023-11-19T00:42:07;13.20;99.90
76787;DHT22;65739;51.482;5.702;2023-11-19T00:44:33;13.20;99.90
76787;DHT22;65739;51.482;5.702;2023-11-19T00:46:58;13.20;99.90
76787;DHT22;65739;51.482;5.702;2023-11-19T00:49:25;13.20;99.90
76787;DHT22;65739;51.482;5.702;2023-11-19T00:51:51;13.20;99.90
76787;DHT22;65739;51.482;5.702;2023-11-19T00:54:16;13.10;99.90
76787;DHT22;65739;51.482;5.702;2023-11-19T00:56:42;13.20;99.90
76787;DHT22;65739;51.482;5.702;2023-11-19T00:59:07;13.20;99.90
76787;DHT22;65739;51.482;5.702;2023-11-19T01:01:33;13.20;99.90
76787;DHT22;65739;51.482;5.702;2023-11-19T01:03:59;13.20;99.90
76787;DHT22;65739;51.482;5.702;2023-11-19T01:06:31;13.20;99.90
76787;DHT22;65739;51.482;5.702;2023-11-19T01:08:57;13.30;99.90
76787;DHT22;65739;51.482;5.702;2023-11-19T01:11:24;13.20;99.90
76787;DHT22;65739;51.482;5.702;2023-11-19T01:13:50;13.20;99.90
76787;DHT22;65739;51.482;5.702;2023-11-19T01:16:16;13.10;99.90
76787;DHT22;65739;51.482;5.702;2023-11-19T01:18:42;13.20;99.90
76787;DHT22;65739;51.482;5.702;2023-11-19T01:21:08;13.10;99.90
76787;DHT22;65739;51.482;5.702;2023-11-19T01:23:34;13.10;99.90
76787;DHT22;65739;51.482;5.702;2023-11-19T01:26:00;13.20;99.90
76787;DHT22;65739;51.482;5.702;2023-11-19T01:28:25;13.10;99.90
76787;DHT22;65739;51.482;5.702;2023-11-19T01:30:51;13.10;99.90
76787;DHT22;65739;51.482;5.702;2023-11-19T01:33:17;13.10;99.90
76787;DHT22;65739;51.482;5.702;2023-11-19T01:35:43;13.10;99.90
76787;DHT22;65739;51.482;5.702;2023-11-19T01:38:08;13.20;99.90
76787;DHT22;65739;51.482;5.702;2023-11-19T01:40:34;13.10;99.90
76787;DHT22;65739;51.482;5.702;2023-11-19T01:43:02;13.10;99.90
76787;DHT22;65739;51.482;5.702;2023-11-19T01:45:29;13.00;99.90
76787;DHT22;65739;51.482;5.702;2023-11-19T01:48:00;13.10;99.90
76787;DHT22;65739;51.482;5.702;2023-11-19T01:50:28;13.00;99.90
76787;DHT22;65739;51.482;5.702;2023-11-19T01:52:54;13.10;99.90
76787;DHT22;65739;51.482;5.702;2023-11-19T01:55:20;13.00;99.90
76787;DHT22;65739;51.482;5.702;2023-11-19T01:57:48;13.10;99.90
76787;DHT22;65739;51.482;5.702;2023-11-19T02:00:15;13.10;99.90
76787;DHT22;65739;51.482;5.702;2023-11-19T02:02:42;13.10;99.90
76787;DHT22;65739;51.482;5.702;2023-11-19T02:05:09;13.10;99.90
76787;DHT22;65739;51.482;5.702;2023-11-19T02:07:34;13.10;99.90
76787;DHT22;65739;51.482;5.702;2023-11-19T02:10:00;13.10;99.90
76787;DHT22;65739;51.482;5.702;2023-11-19T02:12:28;13.00;99.90
76787;DHT22;65739;51.482;5.702;2023-11-19T02:14:54;13.00;99.90
76787;DHT22;65739;51.482;5.702;2023-11-19T02:17:30;13.00;99.90
76787;DHT22;65739;51.482;5.702;2023-11-19T02:20:00;13.00;99.90
76787;DHT22;65739;51.482;5.702;2023-11-19T02:22:25;13.00;99.90
76787;DHT22;65739;51.482;5.702;2023-11-19T02:24:54;12.80;99.90
76787;DHT22;65739;51.482;5.702;2023-11-19T02:29:56;12.80;99.90
76787;DHT22;65739;51.482;5.702;2023-11-19T02:32:23;12.70;99.90
76787;DHT22;65739;51.482;5.702;2023-11-19T02:34:48;12.80;99.90
76787;DHT22;65739;51.482;5.702;2023-11-19T02:37:14;12.70;99.90
76787;DHT22;65739;51.482;5.702;2023-11-19T02:39:40;12.70;99.90
76787;DHT22;65739;51.482;5.702;2023-11-19T02:42:07;12.60;99.90
76787;DHT22;65739;51.482;5.702;2023-11-19T02:44:33;12.60;99.90
76787;DHT22;65739;51.482;5.702;2023-11-19T02:46:59;12.60;99.90
76787;DHT22;65739;51.482;5.702;2023-11-19T02:49:25;12.60;99.90
76787;DHT22;65739;51.482;5.702;2023-11-19T02:51:51;12.40;99.90
76787;DHT22;65739;51.482;5.702;2023-11-19T02:54:17;12.40;99.90
76787;DHT22;65739;51.482;5.702;2023-11-19T02:56:43;12.50;99.90
76787;DHT22;65739;51.482;5.702;2023-11-19T02:59:08;12.50;99.90
76787;DHT22;65739;51.482;5.702;2023-11-19T03:01:43;12.50;99.90
76787;DHT22;65739;51.482;5.702;2023-11-19T03:04:14;12.40;99.90
76787;DHT22;65739;51.482;5.702;2023-11-19T03:06:42;12.40;99.90
76787;DHT22;65739;51.482;5.702;2023-11-19T03:09:07;12.40;99.90
76787;DHT22;65739;51.482;5.702;2023-11-19T03:11:36;12.40;99.90
76787;DHT22;65739;51.482;5.702;2023-11-19T03:14:01;12.30;99.90
76787;DHT22;65739;51.482;5.702;2023-11-19T03:16:28;12.30;99.90
76787;DHT22;65739;51.482;5.702;2023-11-19T03:18:54;12.10;99.90
76787;DHT22;65739;51.482;5.702;2023-11-19T03:21:28;12.20;99.90
76787;DHT22;65739;51.482;5.702;2023-11-19T03:23:53;12.20;99.90
76787;DHT22;65739;51.482;5.702;2023-11-19T03:26:19;12.30;99.90
76787;DHT22;65739;51.482;5.702;2023-11-19T03:28:44;12.20;99.90
76787;DHT22;65739;51.482;5.702;2023-11-19T03:31:10;12.10;99.90
76787;DHT22;65739;51.482;5.702;2023-11-19T03:33:36;12.00;99.90
76787;DHT22;65739;51.482;5.702;2023-11-19T03:36:02;12.00;99.90
76787;DHT22;65739;51.482;5.702;2023-11-19T03:38:28;12.10;99.90
76787;DHT22;65739;51.482;5.702;2023-11-19T03:40:54;12.10;99.90
76787;DHT22;65739;51.482;5.702;2023-11-19T03:43:19;12.10;99.90
76787;DHT22;65739;51.482;5.702;2023-11-19T03:45:45;12.20;99.90
76787;DHT22;65739;51.482;5.702;2023-11-19T03:48:11;12.20;99.90
76787;DHT22;65739;51.482;5.702;2023-11-19T03:50:37;12.20;99.90
76787;DHT22;65739;51.482;5.702;2023-11-19T03:53:02;12.30;99.90
76787;DHT22;65739;51.482;5.702;2023-11-19T03:55:28;12.30;99.90
76787;DHT22;65739;51.482;5.702;2023-11-19T03:57:54;12.10;99.90
76787;DHT22;65739;51.482;5.702;2023-11-19T04:00:20;12.10;99.90
76787;DHT22;65739;51.482;5.702;2023-11-19T04:02:46;12.00;99.90
76787;DHT22;65739;51.482;5.702;2023-11-19T04:05:12;11.90;99.90
76787;DHT22;65739;51.482;5.702;2023-11-19T04:07:38;11.90;99.90
76787;DHT22;65739;51.482;5.702;2023-11-19T04:10:04;12.00;99.90
76787;DHT22;65739;51.482;5.702;2023-11-19T04:12:30;11.90;99.90
76787;DHT22;65739;51.482;5.702;2023-11-19T04:14:55;11.80;99.90
76787;DHT22;65739;51.482;5.702;2023-11-19T04:17:21;11.80;99.90
76787;DHT22;65739;51.482;5.702;2023-11-19T04:19:48;11.80;99.90
76787;DHT22;65739;51.482;5.702;2023-11-19T04:22:14;11.80;99.90
76787;DHT22;65739;51.482;5.702;2023-11-19T04:24:39;11.80;99.90
76787;DHT22;65739;51.482;5.702;2023-11-19T04:27:06;11.80;99.90
76787;DHT22;65739;51.482;5.702;2023-11-19T04:29:32;11.70;99.90
76787;DHT22;65739;51.482;5.702;2023-11-19T04:31:58;11.80;99.90
76787;DHT22;65739;51.482;5.702;2023-11-19T04:34:24;11.90;99.90
76787;DHT22;65739;51.482;5.702;2023-11-19T04:36:50;12.00;99.90
76787;DHT22;65739;51.482;5.702;2023-11-19T04:39:15;12.10;99.90
76787;DHT22;65739;51.482;5.702;2023-11-19T04:41:51;12.10;99.90
76787;DHT22;65739;51.482;5.702;2023-11-19T04:44:20;12.10;99.90
76787;DHT22;65739;51.482;5.702;2023-11-19T04:46:46;12.10;99.90
76787;DHT22;65739;51.482;5.702;2023-11-19T04:49:13;12.10;99.90
76787;DHT22;65739;51.482;5.702;2023-11-19T04:51:43;12.10;99.90
76787;DHT22;65739;51.482;5.702;2023-11-19T04:54:09;12.10;99.90
76787;DHT22;65739;51.482;5.702;2023-11-19T04:56:36;12.00;99.90
76787;DHT22;65739;51.482;5.702;2023-11-19T04:59:03;12.00;99.90
76787;DHT22;65739;51.482;5.702;2023-11-19T05:01:29;12.00;99.90
76787;DHT22;65739;51.482;5.702;2023-11-19T05:03:56;11.90;99.90
76787;DHT22;65739;51.482;5.702;2023-11-19T05:06:29;11.90;99.90
76787;DHT22;65739;51.482;5.702;2023-11-19T05:08:55;11.90;99.90
76787;DHT22;65739;51.482;5.702;2023-11-19T05:11:21;11.80;99.90
76787;DHT22;65739;51.482;5.702;2023-11-19T05:13:47;11.70;99.90
76787;DHT22;65739;51.482;5.702;2023-11-19T05:16:12;11.70;99.90
76787;DHT22;65739;51.482;5.702;2023-11-19T05:18:41;11.80;99.90
76787;DHT22;65739;51.482;5.702;2023-11-19T05:21:07;11.80;99.90
76787;DHT22;65739;51.482;5.702;2023-11-19T05:23:33;11.80;99.90
76787;DHT22;65739;51.482;5.702;2023-11-19T05:26:00;11.90;99.90
76787;DHT22;65739;51.482;5.702;2023-11-19T05:28:26;11.80;99.90
76787;DHT22;65739;51.482;5.702;2023-11-19T05:30:52;11.70;99.90
76787;DHT22;65739;51.482;5.702;2023-11-19T05:33:17;11.70;99.90
76787;DHT22;65739;51.482;5.702;2023-11-19T05:35:43;11.70;99.90
76787;DHT22;65739;51.482;5.702;2023-11-19T05:38:08;11.70;99.90
76787;DHT22;65739;51.482;5.702;2023-11-19T05:40:35;11.70;99.90
76787;DHT22;65739;51.482;5.702;2023-11-19T05:43:01;11.70;99.90
76787;DHT22;65739;51.482;5.702;2023-11-19T05:45:27;11.70;99.90
76787;DHT22;65739;51.482;5.702;2023-11-19T05:47:52;11.70;99.90
76787;DHT22;65739;51.482;5.702;2023-11-19T05:50:18;11.80;99.90
76787;DHT22;65739;51.482;5.702;2023-11-19T05:52:44;11.70;99.90
76787;DHT22;65739;51.482;5.702;2023-11-19T05:55:10;11.60;99.90
76787;DHT22;65739;51.482;5.702;2023-11-19T05:57:37;11.60;99.90
76787;DHT22;65739;51.482;5.702;2023-11-19T06:00:03;11.60;99.90
76787;DHT22;65739;51.482;5.702;2023-11-19T06:02:34;11.50;99.90
76787;DHT22;65739;51.482;5.702;2023-11-19T06:05:00;11.60;99.90
76787;DHT22;65739;51.482;5.702;2023-11-19T06:07:26;11.50;99.90
76787;DHT22;65739;51.482;5.702;2023-11-19T06:09:51;11.50;99.90
76787;DHT22;65739;51.482;5.702;2023-11-19T06:12:17;11.50;99.90
76787;DHT22;65739;51.482;5.702;2023-11-19T06:14:45;11.50;99.90
76787;DHT22;65739;51.482;5.702;2023-11-19T06:17:10;11.50;99.90
76787;DHT22;65739;51.482;5.702;2023-11-19T06:19:37;11.40;99.90
76787;DHT22;65739;51.482;5.702;2023-11-19T06:22:03;11.50;99.90
76787;DHT22;65739;51.482;5.702;2023-11-19T06:24:29;11.40;99.90
76787;DHT22;65739;51.482;5.702;2023-11-19T06:27:04;11.40;99.90
76787;DHT22;65739;51.482;5.702;2023-11-19T06:29:29;11.50;99.90
76787;DHT22;65739;51.482;5.702;2023-11-19T06:31:55;11.40;99.90
76787;DHT22;65739;51.482;5.702;2023-11-19T06:34:21;11.40;99.90
76787;DHT22;65739;51.482;5.702;2023-11-19T06:36:46;11.40;99.90
76787;DHT22;65739;51.482;5.702;2023-11-19T06:39:13;11.40;99.90
76787;DHT22;65739;51.482;5.702;2023-11-19T06:41:45;11.30;99.90
76787;DHT22;65739;51.482;5.702;2023-11-19T06:44:10;11.30;99.90
76787;DHT22;65739;51.482;5.702;2023-11-19T06:46:36;11.20;99.90
76787;DHT22;65739;51.482;5.702;2023-11-19T06:49:01;11.10;99.90
76787;DHT22;65739;51.482;5.702;2023-11-19T06:51:27;11.10;99.90
76787;DHT22;65739;51.482;5.702;2023-11-19T06:53:53;11.10;99.90
76787;DHT22;65739;51.482;5.702;2023-11-19T06:56:23;11.10;99.90
76787;DHT22;65739;51.482;5.702;2023-11-19T06:58:50;11.10;99.90
76787;DHT22;65739;51.482;5.702;2023-11-19T07:01:19;11.00;99.90
76787;DHT22;65739;51.482;5.702;2023-11-19T07:03:45;11.00;99.90
76787;DHT22;65739;51.482;5.702;2023-11-19T07:06:11;11.00;99.90
76787;DHT22;65739;51.482;5.702;2023-11-19T07:08:38;11.00;99.90
76787;DHT22;65739;51.482;5.702;2023-11-19T07:11:08;11.10;99.90
76787;DHT22;65739;51.482;5.702;2023-11-19T07:13:37;11.10;99.90
76787;DHT22;65739;51.482;5.702;2023-11-19T07:16:03;11.00;99.90
76787;DHT22;65739;51.482;5.702;2023-11-19T07:18:29;11.10;99.90
76787;DHT22;65739;51.482;5.702;2023-11-19T07:21:00;11.10;99.90
76787;DHT22;65739;51.482;5.702;2023-11-19T07:23:26;11.20;99.90
76787;DHT22;65739;51.482;5.702;2023-11-19T07:25:51;11.10;99.90
76787;DHT22;65739;51.482;5.702;2023-11-19T07:28:18;11.10;99.90
76787;DHT22;65739;51.482;5.702;2023-11-19T07:30:44;11.00;99.90
76787;DHT22;65739;51.482;5.702;2023-11-19T07:33:10;11.10;99.90
76787;DHT22;65739;51.482;5.702;2023-11-19T07:35:35;11.10;99.90
76787;DHT22;65739;51.482;5.702;2023-11-19T07:38:01;11.10;99.90
76787;DHT22;65739;51.482;5.702;2023-11-19T07:40:26;11.10;99.90
76787;DHT22;65739;51.482;5.702;2023-11-19T07:42:52;11.30;99.90
76787;DHT22;65739;51.482;5.702;2023-11-19T07:45:17;11.30;99.90
76787;DHT22;65739;51.482;5.702;2023-11-19T07:47:43;11.20;99.90
76787;DHT22;65739;51.482;5.702;2023-11-19T07:50:12;11.30;99.90
76787;DHT22;65739;51.482;5.702;2023-11-19T07:52:39;11.30;99.90
76787;DHT22;65739;51.482;5.702;2023-11-19T07:55:05;11.40;99.90
76787;DHT22;65739;51.482;5.702;2023-11-19T07:57:31;11.30;99.90
76787;DHT22;65739;51.482;5.702;2023-11-19T07:59:57;11.40;99.90
76787;DHT22;65739;51.482;5.702;2023-11-19T08:02:23;11.30;99.90
76787;DHT22;65739;51.482;5.702;2023-11-19T08:04:49;11.30;99.90
76787;DHT22;65739;51.482;5.702;2023-11-19T08:07:17;11.30;99.90
76787;DHT22;65739;51.482;5.702;2023-11-19T08:09:43;11.40;99.90
76787;DHT22;65739;51.482;5.702;2023-11-19T08:12:08;11.40;99.90
76787;DHT22;65739;51.482;5.702;2023-11-19T08:14:35;11.50;99.90
76787;DHT22;65739;51.482;5.702;2023-11-19T08:17:00;11.50;99.90
76787;DHT22;65739;51.482;5.702;2023-11-19T08:19:26;11.50;99.90
76787;DHT22;65739;51.482;5.702;2023-11-19T08:21:52;11.60;99.90
76787;DHT22;65739;51.482;5.702;2023-11-19T08:24:17;11.70;99.90
76787;DHT22;65739;51.482;5.702;2023-11-19T08:26:43;11.70;99.90
76787;DHT22;65739;51.482;5.702;2023-11-19T08:29:08;11.70;99.90
76787;DHT22;65739;51.482;5.702;2023-11-19T08:31:39;11.70;99.90
76787;DHT22;65739;51.482;5.702;2023-11-19T08:34:04;11.70;99.90
76787;DHT22;65739;51.482;5.702;2023-11-19T08:36:34;11.70;99.90
76787;DHT22;65739;51.482;5.702;2023-11-19T08:38:59;11.80;99.90
76787;DHT22;65739;51.482;5.702;2023-11-19T08:41:25;11.80;99.90
76787;DHT22;65739;51.482;5.702;2023-11-19T08:43:51;11.80;99.90
76787;DHT22;65739;51.482;5.702;2023-11-19T08:46:17;11.90;99.90
76787;DHT22;65739;51.482;5.702;2023-11-19T08:48:42;12.00;99.90
76787;DHT22;65739;51.482;5.702;2023-11-19T08:51:08;12.00;99.90
76787;DHT22;65739;51.482;5.702;2023-11-19T08:53:34;12.00;99.90
76787;DHT22;65739;51.482;5.702;2023-11-19T08:55:59;12.20;99.90
76787;DHT22;65739;51.482;5.702;2023-11-19T08:58:26;12.20;99.90
76787;DHT22;65739;51.482;5.702;2023-11-19T09:00:51;12.30;99.90
76787;DHT22;65739;51.482;5.702;2023-11-19T09:03:17;12.30;99.90
76787;DHT22;65739;51.482;5.702;2023-11-19T09:05:42;12.30;99.90
76787;DHT22;65739;51.482;5.702;2023-11-19T09:08:08;12.30;99.90
76787;DHT22;65739;51.482;5.702;2023-11-19T09:10:33;12.40;99.90
76787;DHT22;65739;51.482;5.702;2023-11-19T09:12:59;12.50;99.90
76787;DHT22;65739;51.482;5.702;2023-11-19T09:15:24;12.50;99.90
76787;DHT22;65739;51.482;5.702;2023-11-19T09:17:50;12.60;99.90
76787;DHT22;65739;51.482;5.702;2023-11-19T09:20:15;12.70;99.90
76787;DHT22;65739;51.482;5.702;2023-11-19T09:22:41;12.60;99.90
76787;DHT22;65739;51.482;5.702;2023-11-19T09:25:07;12.70;99.90
76787;DHT22;65739;51.482;5.702;2023-11-19T09:27:33;12.70;99.90
76787;DHT22;65739;51.482;5.702;2023-11-19T09:29:59;12.60;99.90
76787;DHT22;65739;51.482;5.702;2023-11-19T09:32:25;12.70;99.90
76787;DHT22;65739;51.482;5.702;2023-11-19T09:34:50;12.80;99.90
76787;DHT22;65739;51.482;5.702;2023-11-19T09:37:16;12.70;99.90
76787;DHT22;65739;51.482;5.702;2023-11-19T09:39:42;12.80;99.90
76787;DHT22;65739;51.482;5.702;2023-11-19T09:42:10;12.90;99.90
76787;DHT22;65739;51.482;5.702;2023-11-19T09:44:37;12.90;99.90
76787;DHT22;65739;51.482;5.702;2023-11-19T09:47:05;12.90;99.90
76787;DHT22;65739;51.482;5.702;2023-11-19T09:49:31;12.90;99.90
76787;DHT22;65739;51.482;5.702;2023-11-19T09:51:56;12.90;99.90
76787;DHT22;65739;51.482;5.702;2023-11-19T09:54:22;12.90;99.90
76787;DHT22;65739;51.482;5.702;2023-11-19T09:56:48;12.90;99.90
76787;DHT22;65739;51.482;5.702;2023-11-19T09:59:14;13.00;99.90
76787;DHT22;65739;51.482;5.702;2023-11-19T10:01:41;13.10;99.90
76787;DHT22;65739;51.482;5.702;2023-11-19T10:04:08;13.20;99.90
76787;DHT22;65739;51.482;5.702;2023-11-19T10:06:34;13.30;99.90
76787;DHT22;65739;51.482;5.702;2023-11-19T10:09:00;13.40;99.90
76787;DHT22;65739;51.482;5.702;2023-11-19T10:11:26;13.60;99.90
76787;DHT22;65739;51.482;5.702;2023-11-19T10:13:53;13.80;99.90
76787;DHT22;65739;51.482;5.702;2023-11-19T10:16:19;13.90;99.90
76787;DHT22;65739;51.482;5.702;2023-11-19T10:18:45;14.00;99.90
76787;DHT22;65739;51.482;5.702;2023-11-19T10:21:15;14.00;99.90
76787;DHT22;65739;51.482;5.702;2023-11-19T10:23:52;13.80;99.90
76787;DHT22;65739;51.482;5.702;2023-11-19T10:26:20;13.90;99.90
76787;DHT22;65739;51.482;5.702;2023-11-19T10:28:46;13.90;99.90
76787;DHT22;65739;51.482;5.702;2023-11-19T10:31:16;14.10;99.90
76787;DHT22;65739;51.482;5.702;2023-11-19T10:33:42;14.10;99.90
76787;DHT22;65739;51.482;5.702;2023-11-19T10:36:10;13.80;99.90
76787;DHT22;65739;51.482;5.702;2023-11-19T10:38:38;13.80;99.90
76787;DHT22;65739;51.482;5.702;2023-11-19T10:41:04;14.10;99.90
76787;DHT22;65739;51.482;5.702;2023-11-19T10:43:31;14.10;99.90
76787;DHT22;65739;51.482;5.702;2023-11-19T10:46:16;14.00;99.90
76787;DHT22;65739;51.482;5.702;2023-11-19T10:48:46;14.00;99.90
76787;DHT22;65739;51.482;5.702;2023-11-19T10:51:13;13.80;99.90
76787;DHT22;65739;51.482;5.702;2023-11-19T10:53:47;13.80;99.90
76787;DHT22;65739;51.482;5.702;2023-11-19T10:56:16;14.00;99.90
76787;DHT22;65739;51.482;5.702;2023-11-19T10:58:45;13.90;99.90
76787;DHT22;65739;51.482;5.702;2023-11-19T11:01:19;13.80;99.90
76787;DHT22;65739;51.482;5.702;2023-11-19T11:03:46;14.00;99.90
76787;DHT22;65739;51.482;5.702;2023-11-19T11:06:13;14.20;99.90
76787;DHT22;65739;51.482;5.702;2023-11-19T11:08:39;14.20;99.90
76787;DHT22;65739;51.482;5.702;2023-11-19T11:11:05;14.20;99.90
76787;DHT22;65739;51.482;5.702;2023-11-19T11:13:33;13.90;99.90
76787;DHT22;65739;51.482;5.702;2023-11-19T11:15:59;13.90;99.90
76787;DHT22;65739;51.482;5.702;2023-11-19T11:18:26;13.80;99.90
76787;DHT22;65739;51.482;5.702;2023-11-19T11:23:56;13.80;99.90
76787;DHT22;65739;51.482;5.702;2023-11-19T11:29:31;13.70;99.90
76787;DHT22;65739;51.482;5.702;2023-11-19T11:37:46;13.70;99.90
76787;DHT22;65739;51.482;5.702;2023-11-19T11:40:17;13.50;99.90
76787;DHT22;65739;51.482;5.702;2023-11-19T11:42:44;13.30;99.90
76787;DHT22;65739;51.482;5.702;2023-11-19T11:45:11;13.30;99.90
76787;DHT22;65739;51.482;5.702;2023-11-19T11:50:13;13.10;99.90
76787;DHT22;65739;51.482;5.702;2023-11-19T11:55:36;13.10;99.90
76787;DHT22;65739;51.482;5.702;2023-11-19T11:58:02;12.90;99.90
76787;DHT22;65739;51.482;5.702;2023-11-19T12:00:37;13.00;99.90
76787;DHT22;65739;51.482;5.702;2023-11-19T12:03:04;13.30;99.90
76787;DHT22;65739;51.482;5.702;2023-11-19T12:05:30;13.50;99.90
76787;DHT22;65739;51.482;5.702;2023-11-19T12:08:00;13.70;99.90
76787;DHT22;65739;51.482;5.702;2023-11-19T12:10:29;13.80;99.90
76787;DHT22;65739;51.482;5.702;2023-11-19T12:13:00;14.00;99.90
76787;DHT22;65739;51.482;5.702;2023-11-19T12:15:26;13.90;99.90
76787;DHT22;65739;51.482;5.702;2023-11-19T12:17:56;13.80;99.90
76787;DHT22;65739;51.482;5.702;2023-11-19T12:20:23;14.00;99.90
76787;DHT22;65739;51.482;5.702;2023-11-19T12:22:50;14.10;99.90
76787;DHT22;65739;51.482;5.702;2023-11-19T12:25:17;14.30;99.90
76787;DHT22;65739;51.482;5.702;2023-11-19T12:30:11;14.20;99.90
76787;DHT22;65739;51.482;5.702;2023-11-19T12:32:44;14.10;99.90
76787;DHT22;65739;51.482;5.702;2023-11-19T12:35:10;14.20;99.90
76787;DHT22;65739;51.482;5.702;2023-11-19T12:37:40;14.30;99.90
76787;DHT22;65739;51.482;5.702;2023-11-19T12:40:23;14.50;99.90
76787;DHT22;65739;51.482;5.702;2023-11-19T12:42:49;14.40;99.90
76787;DHT22;65739;51.482;5.702;2023-11-19T12:45:15;14.50;99.90
76787;DHT22;65739;51.482;5.702;2023-11-19T12:47:42;14.50;99.90
76787;DHT22;65739;51.482;5.702;2023-11-19T12:50:09;14.50;99.90
76787;DHT22;65739;51.482;5.702;2023-11-19T12:52:36;14.40;99.90
76787;DHT22;65739;51.482;5.702;2023-11-19T12:55:24;14.00;99.90
76787;DHT22;65739;51.482;5.702;2023-11-19T12:57:50;13.90;99.90
76787;DHT22;65739;51.482;5.702;2023-11-19T13:00:21;13.80;99.90
76787;DHT22;65739;51.482;5.702;2023-11-19T13:02:56;13.70;99.90
76787;DHT22;65739;51.482;5.702;2023-11-19T13:05:30;13.60;99.90
76787;DHT22;65739;51.482;5.702;2023-11-19T13:07:59;13.60;99.90
76787;DHT22;65739;51.482;5.702;2023-11-19T13:10:26;13.60;99.90
76787;DHT22;65739;51.482;5.702;2023-11-19T13:13:05;13.50;99.90
76787;DHT22;65739;51.482;5.702;2023-11-19T13:15:32;13.50;99.90
76787;DHT22;65739;51.482;5.702;2023-11-19T13:17:58;13.50;99.90
76787;DHT22;65739;51.482;5.702;2023-11-19T13:20:24;13.30;99.90
76787;DHT22;65739;51.482;5.702;2023-11-19T13:25:22;13.10;99.90
76787;DHT22;65739;51.482;5.702;2023-11-19T13:27:47;12.90;99.90
76787;DHT22;65739;51.482;5.702;2023-11-19T13:30:13;12.70;99.90
76787;DHT22;65739;51.482;5.702;2023-11-19T13:32:39;12.60;99.90
76787;DHT22;65739;51.482;5.702;2023-11-19T13:35:06;12.50;99.90
76787;DHT22;65739;51.482;5.702;2023-11-19T13:37:34;12.60;99.90
76787;DHT22;65739;51.482;5.702;2023-11-19T13:40:00;12.70;99.90
76787;DHT22;65739;51.482;5.702;2023-11-19T13:42:25;13.00;99.90
76787;DHT22;65739;51.482;5.702;2023-11-19T13:44:51;13.10;99.90
76787;DHT22;65739;51.482;5.702;2023-11-19T13:47:17;13.00;99.90
76787;DHT22;65739;51.482;5.702;2023-11-19T13:49:44;13.00;99.90
76787;DHT22;65739;51.482;5.702;2023-11-19T13:52:10;12.90;99.90
76787;DHT22;65739;51.482;5.702;2023-11-19T13:54:37;12.80;99.90
76787;DHT22;65739;51.482;5.702;2023-11-19T13:57:03;12.80;99.90
76787;DHT22;65739;51.482;5.702;2023-11-19T13:59:30;12.60;99.90
76787;DHT22;65739;51.482;5.702;2023-11-19T14:01:57;12.50;99.90
76787;DHT22;65739;51.482;5.702;2023-11-19T14:04:23;12.40;99.90
76787;DHT22;65739;51.482;5.702;2023-11-19T14:06:49;12.50;99.90
76787;DHT22;65739;51.482;5.702;2023-11-19T14:09:14;12.50;99.90
76787;DHT22;65739;51.482;5.702;2023-11-19T14:11:40;12.60;99.90
76787;DHT22;65739;51.482;5.702;2023-11-19T14:14:07;12.60;99.90
76787;DHT22;65739;51.482;5.702;2023-11-19T14:16:33;12.60;99.90
76787;DHT22;65739;51.482;5.702;2023-11-19T14:18:59;12.50;99.90
76787;DHT22;65739;51.482;5.702;2023-11-19T14:21:25;12.40;99.90
76787;DHT22;65739;51.482;5.702;2023-11-19T14:23:52;12.40;99.90
76787;DHT22;65739;51.482;5.702;2023-11-19T14:26:18;12.40;99.90
76787;DHT22;65739;51.482;5.702;2023-11-19T14:28:43;12.40;99.90
76787;DHT22;65739;51.482;5.702;2023-11-19T14:31:09;12.40;99.90
76787;DHT22;65739;51.482;5.702;2023-11-19T14:33:35;12.40;99.90
76787;DHT22;65739;51.482;5.702;2023-11-19T14:36:03;12.40;99.90
76787;DHT22;65739;51.482;5.702;2023-11-19T14:38:29;12.40;99.90
76787;DHT22;65739;51.482;5.702;2023-11-19T14:40:55;12.40;99.90
76787;DHT22;65739;51.482;5.702;2023-11-19T14:43:21;12.30;99.90
76787;DHT22;65739;51.482;5.702;2023-11-19T14:45:46;12.20;99.90
76787;DHT22;65739;51.482;5.702;2023-11-19T14:48:12;12.20;99.90
76787;DHT22;65739;51.482;5.702;2023-11-19T14:50:37;12.10;99.90
76787;DHT22;65739;51.482;5.702;2023-11-19T14:53:03;12.10;99.90
76787;DHT22;65739;51.482;5.702;2023-11-19T14:55:28;12.10;99.90
76787;DHT22;65739;51.482;5.702;2023-11-19T14:57:54;12.10;99.90
76787;DHT22;65739;51.482;5.702;2023-11-19T15:00:20;12.10;99.90
76787;DHT22;65739;51.482;5.702;2023-11-19T15:02:46;12.10;99.90
76787;DHT22;65739;51.482;5.702;2023-11-19T15:05:12;12.10;99.90
76787;DHT22;65739;51.482;5.702;2023-11-19T15:07:38;12.10;99.90
76787;DHT22;65739;51.482;5.702;2023-11-19T15:10:05;12.10;99.90
76787;DHT22;65739;51.482;5.702;2023-11-19T15:12:36;12.00;99.90
76787;DHT22;65739;51.482;5.702;2023-11-19T15:15:06;11.90;99.90
76787;DHT22;65739;51.482;5.702;2023-11-19T15:17:31;11.70;99.90
76787;DHT22;65739;51.482;5.702;2023-11-19T15:19:57;11.70;99.90
76787;DHT22;65739;51.482;5.702;2023-11-19T15:22:22;11.70;99.90
76787;DHT22;65739;51.482;5.702;2023-11-19T15:24:48;11.60;99.90
76787;DHT22;65739;51.482;5.702;2023-11-19T15:27:13;11.60;99.90
76787;DHT22;65739;51.482;5.702;2023-11-19T15:29:39;11.60;99.90
76787;DHT22;65739;51.482;5.702;2023-11-19T15:32:05;11.50;99.90
76787;DHT22;65739;51.482;5.702;2023-11-19T15:34:33;11.50;99.90
76787;DHT22;65739;51.482;5.702;2023-11-19T15:36:59;11.40;99.90
76787;DHT22;65739;51.482;5.702;2023-11-19T15:39:26;11.40;99.90
76787;DHT22;65739;51.482;5.702;2023-11-19T15:41:52;11.40;99.90
76787;DHT22;65739;51.482;5.702;2023-11-19T15:44:18;11.40;99.90
76787;DHT22;65739;51.482;5.702;2023-11-19T15:46:43;11.30;99.90
76787;DHT22;65739;51.482;5.702;2023-11-19T15:49:09;11.40;99.90
76787;DHT22;65739;51.482;5.702;2023-11-19T15:51:35;11.30;99.90